createdAt,value
2023-01-28T10:19:47.723Z,50.29
2023-01-28T10:22:27.855Z,50.67
2023-01-28T10:25:02.348Z,50.15
2023-01-28T10:27:32.936Z,49.91
2023-01-28T10:30:28.048Z,49.87
2023-01-28T10:33:22.965Z,50.19
2023-01-28T10:35:51.552Z,50.31
2023-01-28T10:38:24.092Z,50.37
2023-01-28T10:40:53.332Z,50.35
2023-01-28T10:43:25.634Z,50.44
2023-01-28T10:45:58.404Z,50.14
2023-01-28T10:48:42.979Z,50.38
2023-01-28T10:51:11.164Z,50.68
2023-01-28T10:53:45.368Z,50.07
2023-01-28T10:56:24.208Z,50.13
2023-01-28T10:59:02.753Z,50.23
2023-01-28T11:01:54.090Z,50.30
2023-01-28T11:04:32.046Z,50.43
2023-01-28T11:07:07.683Z,50.07
2023-01-28T11:09:38.512Z,49.92
2023-01-28T11:12:20.184Z,49.93
2023-01-28T11:14:54.100Z,49.69
2023-01-28T11:17:26.055Z,49.58
2023-01-28T11:19:57.409Z,49.27
2023-01-28T11:22:41.955Z,49.58
2023-01-28T11:25:22.319Z,49.77
2023-01-28T11:27:52.794Z,49.71
2023-01-28T11:30:27.639Z,49.49
2023-01-28T11:33:23.231Z,49.57
2023-01-28T11:36:19.758Z,49.41
2023-01-28T11:39:17.218Z,49.69
2023-01-28T11:41:47.837Z,50.72
2023-01-28T11:44:20.291Z,50.04
2023-01-28T11:47:08.176Z,49.65
2023-01-28T11:50:06.265Z,49.64
2023-01-28T11:53:06.801Z,49.86
2023-01-28T11:55:42.540Z,49.68
2023-01-28T11:58:31.819Z,49.54
2023-01-28T12:01:13.054Z,49.46
2023-01-28T12:04:03.657Z,49.73
2023-01-28T12:06:41.099Z,49.56
2023-01-28T12:09:32.937Z,49.35
2023-01-28T12:12:44.890Z,49.73
2023-01-28T12:15:41.341Z,50.04
2023-01-28T12:18:37.545Z,50.36
2023-01-28T12:21:11.475Z,50.52
2023-01-28T12:23:59.458Z,50.51
2023-01-28T12:26:53.391Z,50.26
2023-01-28T12:29:34.692Z,50.11
2023-01-28T12:32:31.958Z,49.95
2023-01-28T12:35:08.291Z,49.99
2023-01-28T12:38:15.043Z,50.44
2023-01-28T12:41:01.808Z,50.77
2023-01-28T12:43:36.288Z,50.83
2023-01-28T12:46:13.564Z,51.08
2023-01-28T12:48:51.217Z,51.39
2023-01-28T12:51:28.445Z,51.37
2023-01-28T12:54:11.951Z,51.17
2023-01-28T12:56:45.750Z,51.27
2023-01-28T12:59:59.613Z,51.45
2023-01-28T13:02:42.310Z,51.91
2023-01-28T13:05:27.708Z,51.65
2023-01-28T13:08:14.349Z,51.61
2023-01-28T13:10:46.038Z,51.50
2023-01-28T13:13:30.935Z,51.09
2023-01-28T13:16:01.475Z,51.22
2023-01-28T13:18:44.486Z,51.08
2023-01-28T13:21:24.761Z,51.01
2023-01-28T13:24:02.779Z,50.98
2023-01-28T13:26:52.026Z,51.04
2023-01-28T13:29:28.851Z,51.44
2023-01-28T13:32:04.996Z,51.40
2023-01-28T13:34:40.968Z,51.00
2023-01-28T13:37:28.362Z,51.09
2023-01-28T13:40:07.208Z,51.08
2023-01-28T13:42:36.294Z,51.15
2023-01-28T13:45:37.460Z,51.05
2023-01-28T13:48:29.155Z,51.02
2023-01-28T13:50:58.193Z,51.16
2023-01-28T13:53:45.658Z,51.15
2023-01-28T13:56:28.176Z,51.09
2023-01-28T13:59:02.714Z,51.12
2023-01-28T14:01:46.054Z,51.21
2023-01-28T14:04:45.465Z,51.06
2023-01-28T14:07:42.087Z,50.76
2023-01-28T14:10:32.394Z,51.17
2023-01-28T14:13:24.900Z,51.31
2023-01-28T14:16:09.587Z,51.55
2023-01-28T14:18:43.437Z,51.58
2023-01-28T14:21:15.825Z,51.57
2023-01-28T14:23:56.300Z,51.55
2023-01-28T14:26:46.218Z,51.30
2023-01-28T14:29:33.221Z,51.26
2023-01-28T14:32:19.714Z,51.12
2023-01-28T14:34:51.672Z,51.12
2023-01-28T14:37:23.449Z,51.15
2023-01-28T14:39:56.449Z,51.87
2023-01-28T14:42:37.095Z,52.32
2023-01-28T14:45:30.154Z,52.47
2023-01-28T14:48:22.625Z,52.59
2023-01-28T14:51:09.274Z,52.47
2023-01-28T14:53:45.586Z,52.64
2023-01-28T14:56:36.676Z,52.61
2023-01-28T14:59:24.004Z,52.76
2023-01-28T15:01:57.601Z,53.03
2023-01-28T15:04:32.916Z,53.06
2023-01-28T15:07:17.966Z,53.20
2023-01-28T15:09:46.332Z,53.70
2023-01-28T15:12:18.061Z,53.88
2023-01-28T15:14:48.916Z,53.98
2023-01-28T15:17:28.270Z,54.31
2023-01-28T15:20:01.451Z,54.36
2023-01-28T15:22:30.160Z,54.49
2023-01-28T15:24:58.701Z,55.63
2023-01-28T15:27:31.446Z,55.14
2023-01-28T15:30:00.183Z,55.03
2023-01-28T15:32:31.684Z,54.89
2023-01-28T15:35:01.939Z,55.22
2023-01-28T15:37:32.069Z,55.16
2023-01-28T15:40:08.706Z,55.55
2023-01-28T15:42:38.678Z,56.29
2023-01-28T15:45:18.104Z,56.64
2023-01-28T15:47:51.228Z,56.51
2023-01-28T15:50:25.269Z,56.30
2023-01-28T15:52:55.765Z,56.37
2023-01-28T15:55:27.565Z,56.01
2023-01-28T15:57:56.140Z,56.17
2023-01-28T16:00:29.465Z,56.27
2023-01-28T16:03:09.204Z,56.62
2023-01-28T16:05:42.797Z,56.26
2023-01-28T16:08:18.566Z,56.01
2023-01-28T16:10:53.950Z,56.06
2023-01-28T16:13:25.603Z,56.35
2023-01-28T16:15:56.794Z,56.20
2023-01-28T16:18:49.351Z,56.11
2023-01-28T16:21:25.200Z,56.79
2023-01-28T16:24:08.388Z,56.39
2023-01-28T16:26:36.905Z,56.09
2023-01-28T16:29:17.289Z,56.10
2023-01-28T16:31:45.803Z,56.45
2023-01-28T16:34:14.330Z,56.56
2023-01-28T16:36:42.929Z,57.02
2023-01-28T16:39:11.924Z,56.89
2023-01-28T16:41:45.378Z,56.84
2023-01-28T16:44:15.203Z,56.70
2023-01-28T16:46:44.174Z,56.67
2023-01-28T16:49:12.572Z,56.88
2023-01-28T16:51:44.120Z,56.67
2023-01-28T16:54:16.115Z,57.01
2023-01-28T16:56:46.852Z,56.74
2023-01-28T16:59:16.639Z,56.89
2023-01-28T17:01:46.717Z,56.89
2023-01-28T17:04:16.039Z,56.69
2023-01-28T17:06:45.536Z,56.80
2023-01-28T17:09:15.137Z,56.67
2023-01-28T17:11:43.665Z,56.89
2023-01-28T17:14:14.183Z,56.69
2023-01-28T17:16:42.957Z,56.84
2023-01-28T17:19:11.307Z,56.98
2023-01-28T17:21:42.583Z,56.94
2023-01-28T17:24:11.152Z,57.32
2023-01-28T17:26:39.887Z,57.58
2023-01-28T17:29:09.115Z,57.75
2023-01-28T17:31:43.017Z,58.01
2023-01-28T17:34:12.680Z,58.08
2023-01-28T17:36:41.491Z,58.09
2023-01-28T17:39:10.272Z,58.76
2023-01-28T17:41:40.785Z,58.96
2023-01-28T17:44:12.747Z,59.08
2023-01-28T17:46:41.271Z,59.54
2023-01-28T17:49:09.461Z,59.49
2023-01-28T17:51:37.974Z,59.46
2023-01-28T17:54:06.650Z,59.42
2023-01-28T17:56:34.987Z,59.56
2023-01-28T17:59:04.104Z,59.87
2023-01-28T18:01:33.765Z,60.11
2023-01-28T18:04:02.180Z,60.20
2023-01-28T18:06:37.487Z,60.22
2023-01-28T18:09:07.343Z,60.41
2023-01-28T18:11:36.249Z,60.45
2023-01-28T18:14:04.794Z,60.47
2023-01-28T18:16:33.197Z,60.50
2023-01-28T18:19:01.617Z,60.50
2023-01-28T18:21:54.317Z,60.65
2023-01-28T18:24:30.148Z,61.04
2023-01-28T18:27:00.781Z,61.08
2023-01-28T18:29:31.149Z,61.21
2023-01-28T18:32:00.074Z,61.10
2023-01-28T18:34:31.825Z,60.85
2023-01-28T18:37:04.051Z,60.77
2023-01-28T18:39:32.661Z,60.61
2023-01-28T18:42:01.004Z,60.88
2023-01-28T18:44:33.747Z,60.84
2023-01-28T18:47:02.353Z,61.18
2023-01-28T18:49:30.874Z,60.84
2023-01-28T18:52:00.063Z,61.08
2023-01-28T18:54:31.815Z,61.45
2023-01-28T18:57:00.874Z,61.06
2023-01-28T18:59:29.559Z,61.01
2023-01-28T19:01:58.418Z,61.18
2023-01-28T19:04:29.742Z,61.56
2023-01-28T19:06:58.229Z,61.65
2023-01-28T19:09:27.019Z,61.94
2023-01-28T19:11:55.882Z,62.11
2023-01-28T19:14:27.281Z,61.78
2023-01-28T19:16:55.821Z,61.55
2023-01-28T19:19:24.919Z,61.28
2023-01-28T19:21:55.913Z,62.01
2023-01-28T19:24:24.369Z,61.84
2023-01-28T19:26:52.549Z,61.84
2023-01-28T19:29:21.006Z,61.86
2023-01-28T19:31:49.583Z,61.46
2023-01-28T19:34:18.116Z,61.35
2023-01-28T19:36:47.158Z,61.08
2023-01-28T19:39:16.178Z,62.23
2023-01-28T19:41:45.457Z,62.35
2023-01-28T19:44:14.336Z,62.20
2023-01-28T19:46:43.090Z,62.29
2023-01-28T19:49:12.957Z,63.12
2023-01-28T19:51:41.501Z,62.81
2023-01-28T19:54:10.001Z,62.76
2023-01-28T19:56:39.259Z,62.74
2023-01-28T19:59:09.615Z,62.61
2023-01-28T20:01:38.551Z,62.67
2023-01-28T20:04:07.492Z,62.84
2023-01-28T20:06:39.199Z,62.70
2023-01-28T20:09:20.672Z,62.52
2023-01-28T20:11:49.316Z,62.53
2023-01-28T20:14:21.059Z,62.27
2023-01-28T20:16:49.468Z,62.15
2023-01-28T20:19:19.337Z,62.55
2023-01-28T20:21:48.149Z,62.23
2023-01-28T20:24:17.622Z,62.45
2023-01-28T20:26:46.292Z,62.68
2023-01-28T20:29:21.488Z,62.56
2023-01-28T20:32:05.178Z,63.15
2023-01-28T20:34:42.808Z,63.23
2023-01-28T20:37:13.667Z,62.57
2023-01-28T20:39:42.446Z,62.40
2023-01-28T20:42:13.492Z,62.40
2023-01-28T20:44:45.168Z,62.52
2023-01-28T20:47:14.882Z,62.51
2023-01-28T20:49:43.873Z,62.43
2023-01-28T20:52:12.380Z,62.55
2023-01-28T20:54:40.966Z,62.26
2023-01-28T20:57:09.319Z,62.06
2023-01-28T20:59:39.453Z,62.20
2023-01-28T21:02:10.753Z,61.99
2023-01-28T21:04:39.340Z,62.34
2023-01-28T21:07:09.618Z,62.37
2023-01-28T21:09:40.403Z,62.77
2023-01-28T21:12:11.352Z,62.38
2023-01-28T21:14:39.749Z,62.46
2023-01-28T21:17:08.507Z,62.35
2023-01-28T21:19:36.810Z,62.62
2023-01-28T21:22:05.158Z,63.08
2023-01-28T21:24:33.698Z,62.95
2023-01-28T21:27:02.017Z,63.11
2023-01-28T21:29:32.416Z,62.72
2023-01-28T21:32:00.979Z,62.67
2023-01-28T21:34:29.812Z,62.43
2023-01-28T21:36:58.240Z,62.51
2023-01-28T21:39:26.389Z,62.47
2023-01-28T21:41:57.094Z,62.69
2023-01-28T21:44:25.684Z,62.92
2023-01-28T21:46:54.279Z,62.35
2023-01-28T21:49:23.796Z,62.14
2023-01-28T21:51:55.113Z,61.96
2023-01-28T21:54:27.793Z,61.68
2023-01-28T21:56:56.185Z,61.89
2023-01-28T21:59:31.337Z,62.01
2023-01-28T22:02:02.248Z,62.58
2023-01-28T22:04:36.210Z,62.10
2023-01-28T22:07:07.081Z,62.28
2023-01-28T22:09:44.190Z,62.21
2023-01-28T22:12:16.764Z,62.09
2023-01-28T22:14:48.960Z,62.01
2023-01-28T22:17:19.733Z,63.44
2023-01-28T22:19:51.269Z,64.59
2023-01-28T22:22:23.759Z,64.27
2023-01-28T22:24:52.649Z,64.14
2023-01-28T22:27:21.446Z,63.96
2023-01-28T22:29:52.484Z,63.68
2023-01-28T22:32:25.621Z,63.99
2023-01-28T22:34:54.183Z,63.39
2023-01-28T22:37:22.485Z,63.20
2023-01-28T22:39:50.817Z,63.34
2023-01-28T22:42:19.978Z,63.03
2023-01-28T22:44:51.060Z,62.99
2023-01-28T22:47:19.484Z,62.91
2023-01-28T22:49:48.398Z,62.87
2023-01-28T22:52:17.671Z,63.83
2023-01-28T22:54:48.130Z,64.08
2023-01-28T22:57:16.537Z,63.42
2023-01-28T22:59:59.780Z,63.12
2023-01-28T23:02:31.134Z,63.93
2023-01-28T23:04:59.700Z,63.73
2023-01-28T23:07:28.452Z,65.26
2023-01-28T23:09:56.725Z,65.37
2023-01-28T23:12:25.205Z,64.84
2023-01-28T23:15:15.385Z,65.01
2023-01-28T23:18:02.329Z,64.96
2023-01-28T23:20:49.150Z,66.36
2023-01-28T23:23:36.565Z,67.08
2023-01-28T23:26:07.745Z,66.77
2023-01-28T23:28:36.186Z,67.07
2023-01-28T23:31:04.616Z,67.21
2023-01-28T23:33:33.273Z,66.67
2023-01-28T23:36:01.586Z,66.10
2023-01-28T23:38:30.156Z,65.87
2023-01-28T23:40:58.841Z,65.77
2023-01-28T23:43:27.350Z,66.24
2023-01-28T23:45:56.171Z,66.16
2023-01-28T23:48:27.361Z,66.26
2023-01-28T23:50:56.312Z,65.51
2023-01-28T23:53:24.794Z,65.41
2023-01-28T23:55:53.140Z,65.94
2023-01-28T23:58:37.431Z,65.74
